sensor_id;sensor_type;location;lat;lon;timestamp;P1;durP1;ratioP1;P2;durP2;ratioP2
58338;SDS011;68636;52.704;6.536;2024-03-29T00:00:39;4.28;;;0.40;;
58338;SDS011;68636;52.704;6.536;2024-03-29T00:03:06;9.73;;;0.40;;
58338;SDS011;68636;52.704;6.536;2024-03-29T00:05:32;2.33;;;0.30;;
58338;SDS011;68636;52.704;6.536;2024-03-29T00:07:59;4.10;;;0.30;;
58338;SDS011;68636;52.704;6.536;2024-03-29T00:10:25;4.65;;;0.28;;
58338;SDS011;68636;52.704;6.536;2024-03-29T00:12:51;1.77;;;0.30;;
58338;SDS011;68636;52.704;6.536;2024-03-29T00:15:17;4.93;;;0.30;;
58338;SDS011;68636;52.704;6.536;2024-03-29T00:17:43;3.08;;;0.30;;
58338;SDS011;68636;52.704;6.536;2024-03-29T00:20:09;2.97;;;0.40;;
58338;SDS011;68636;52.704;6.536;2024-03-29T00:22:36;3.20;;;0.30;;
58338;SDS011;68636;52.704;6.536;2024-03-29T00:25:03;1.40;;;0.30;;
58338;SDS011;68636;52.704;6.536;2024-03-29T00:27:29;3.13;;;0.30;;
58338;SDS011;68636;52.704;6.536;2024-03-29T00:29:55;2.63;;;0.40;;
58338;SDS011;68636;52.704;6.536;2024-03-29T00:32:22;3.80;;;0.40;;
58338;SDS011;68636;52.704;6.536;2024-03-29T00:34:52;5.22;;;0.38;;
58338;SDS011;68636;52.704;6.536;2024-03-29T00:37:19;4.32;;;0.43;;
58338;SDS011;68636;52.704;6.536;2024-03-29T00:39:45;2.45;;;0.40;;
58338;SDS011;68636;52.704;6.536;2024-03-29T00:42:11;1.35;;;0.30;;
58338;SDS011;68636;52.704;6.536;2024-03-29T00:44:40;5.53;;;0.30;;
58338;SDS011;68636;52.704;6.536;2024-03-29T00:47:06;4.45;;;0.40;;
58338;SDS011;68636;52.704;6.536;2024-03-29T00:49:32;5.30;;;0.55;;
58338;SDS011;68636;52.704;6.536;2024-03-29T00:51:59;2.28;;;0.40;;
58338;SDS011;68636;52.704;6.536;2024-03-29T00:54:25;3.53;;;0.30;;
58338;SDS011;68636;52.704;6.536;2024-03-29T00:56:51;3.67;;;0.40;;
58338;SDS011;68636;52.704;6.536;2024-03-29T00:59:17;5.03;;;0.30;;
58338;SDS011;68636;52.704;6.536;2024-03-29T01:01:46;1.40;;;0.20;;
58338;SDS011;68636;52.704;6.536;2024-03-29T01:04:12;5.03;;;0.45;;
58338;SDS011;68636;52.704;6.536;2024-03-29T01:06:39;2.63;;;0.30;;
58338;SDS011;68636;52.704;6.536;2024-03-29T01:09:05;5.63;;;0.77;;
58338;SDS011;68636;52.704;6.536;2024-03-29T01:11:31;3.25;;;0.30;;
58338;SDS011;68636;52.704;6.536;2024-03-29T01:13:58;2.00;;;0.27;;
58338;SDS011;68636;52.704;6.536;2024-03-29T01:16:24;5.28;;;0.40;;
58338;SDS011;68636;52.704;6.536;2024-03-29T01:18:50;4.15;;;0.45;;
58338;SDS011;68636;52.704;6.536;2024-03-29T01:21:17;3.80;;;0.60;;
58338;SDS011;68636;52.704;6.536;2024-03-29T01:23:44;3.92;;;0.40;;
58338;SDS011;68636;52.704;6.536;2024-03-29T01:26:12;5.28;;;0.40;;
58338;SDS011;68636;52.704;6.536;2024-03-29T01:31:05;2.10;;;0.20;;
58338;SDS011;68636;52.704;6.536;2024-03-29T01:33:31;4.30;;;0.40;;
58338;SDS011;68636;52.704;6.536;2024-03-29T01:36:01;2.30;;;0.20;;
58338;SDS011;68636;52.704;6.536;2024-03-29T01:38:28;3.10;;;0.30;;
58338;SDS011;68636;52.704;6.536;2024-03-29T01:40:54;2.97;;;0.40;;
58338;SDS011;68636;52.704;6.536;2024-03-29T01:43:20;2.42;;;0.30;;
58338;SDS011;68636;52.704;6.536;2024-03-29T01:45:47;3.20;;;0.30;;
58338;SDS011;68636;52.704;6.536;2024-03-29T01:48:14;2.60;;;0.77;;
58338;SDS011;68636;52.704;6.536;2024-03-29T01:50:41;1.58;;;0.20;;
58338;SDS011;68636;52.704;6.536;2024-03-29T01:53:07;4.43;;;0.30;;
58338;SDS011;68636;52.704;6.536;2024-03-29T01:55:37;3.90;;;0.45;;
58338;SDS011;68636;52.704;6.536;2024-03-29T01:58:03;2.58;;;0.28;;
58338;SDS011;68636;52.704;6.536;2024-03-29T02:00:30;2.58;;;0.20;;
58338;SDS011;68636;52.704;6.536;2024-03-29T02:02:57;1.73;;;0.22;;
58338;SDS011;68636;52.704;6.536;2024-03-29T02:05:24;6.20;;;0.50;;
58338;SDS011;68636;52.704;6.536;2024-03-29T02:07:50;4.93;;;0.30;;
58338;SDS011;68636;52.704;6.536;2024-03-29T02:10:16;2.47;;;0.20;;
58338;SDS011;68636;52.704;6.536;2024-03-29T02:12:43;5.57;;;0.30;;
58338;SDS011;68636;52.704;6.536;2024-03-29T02:15:13;5.13;;;0.40;;
58338;SDS011;68636;52.704;6.536;2024-03-29T02:17:40;2.95;;;0.30;;
58338;SDS011;68636;52.704;6.536;2024-03-29T02:20:06;1.80;;;0.20;;
58338;SDS011;68636;52.704;6.536;2024-03-29T02:22:32;3.28;;;0.20;;
58338;SDS011;68636;52.704;6.536;2024-03-29T02:25:02;4.53;;;0.30;;
58338;SDS011;68636;52.704;6.536;2024-03-29T02:27:28;3.58;;;0.30;;
58338;SDS011;68636;52.704;6.536;2024-03-29T02:29:54;3.35;;;0.25;;
58338;SDS011;68636;52.704;6.536;2024-03-29T02:32:20;2.50;;;0.20;;
58338;SDS011;68636;52.704;6.536;2024-03-29T02:34:46;1.90;;;0.20;;
58338;SDS011;68636;52.704;6.536;2024-03-29T02:37:12;4.57;;;0.40;;
58338;SDS011;68636;52.704;6.536;2024-03-29T02:39:39;4.80;;;0.38;;
58338;SDS011;68636;52.704;6.536;2024-03-29T02:42:05;1.88;;;0.20;;
58338;SDS011;68636;52.704;6.536;2024-03-29T02:44:31;3.40;;;0.20;;
58338;SDS011;68636;52.704;6.536;2024-03-29T02:46:57;2.42;;;0.40;;
58338;SDS011;68636;52.704;6.536;2024-03-29T02:49:23;2.20;;;0.20;;
58338;SDS011;68636;52.704;6.536;2024-03-29T02:51:49;3.75;;;0.50;;
58338;SDS011;68636;52.704;6.536;2024-03-29T02:54:18;2.63;;;0.30;;
58338;SDS011;68636;52.704;6.536;2024-03-29T02:56:44;3.40;;;0.20;;
58338;SDS011;68636;52.704;6.536;2024-03-29T02:59:10;3.05;;;0.30;;
58338;SDS011;68636;52.704;6.536;2024-03-29T03:01:36;3.35;;;0.30;;
58338;SDS011;68636;52.704;6.536;2024-03-29T03:04:02;4.13;;;0.30;;
58338;SDS011;68636;52.704;6.536;2024-03-29T03:06:28;2.45;;;0.25;;
58338;SDS011;68636;52.704;6.536;2024-03-29T03:08:54;4.43;;;0.20;;
58338;SDS011;68636;52.704;6.536;2024-03-29T03:11:39;1.83;;;0.10;;
58338;SDS011;68636;52.704;6.536;2024-03-29T03:14:05;2.03;;;0.30;;
58338;SDS011;68636;52.704;6.536;2024-03-29T03:16:31;2.25;;;0.20;;
58338;SDS011;68636;52.704;6.536;2024-03-29T03:18:57;3.22;;;0.30;;
58338;SDS011;68636;52.704;6.536;2024-03-29T03:23:50;2.07;;;0.20;;
58338;SDS011;68636;52.704;6.536;2024-03-29T03:26:16;2.63;;;0.20;;
58338;SDS011;68636;52.704;6.536;2024-03-29T03:28:42;2.83;;;0.38;;
58338;SDS011;68636;52.704;6.536;2024-03-29T03:31:08;2.38;;;0.20;;
58338;SDS011;68636;52.704;6.536;2024-03-29T03:33:35;9.98;;;0.55;;
58338;SDS011;68636;52.704;6.536;2024-03-29T03:36:01;2.03;;;0.30;;
58338;SDS011;68636;52.704;6.536;2024-03-29T03:38:27;1.70;;;0.20;;
58338;SDS011;68636;52.704;6.536;2024-03-29T03:40:53;7.32;;;0.95;;
58338;SDS011;68636;52.704;6.536;2024-03-29T03:43:19;3.50;;;0.20;;
58338;SDS011;68636;52.704;6.536;2024-03-29T03:45:46;2.65;;;0.20;;
58338;SDS011;68636;52.704;6.536;2024-03-29T03:48:13;4.32;;;0.20;;
58338;SDS011;68636;52.704;6.536;2024-03-29T03:50:40;2.50;;;0.20;;
58338;SDS011;68636;52.704;6.536;2024-03-29T03:53:06;2.40;;;0.20;;
58338;SDS011;68636;52.704;6.536;2024-03-29T03:55:39;2.50;;;0.30;;
58338;SDS011;68636;52.704;6.536;2024-03-29T03:58:05;5.78;;;0.30;;
58338;SDS011;68636;52.704;6.536;2024-03-29T04:00:31;2.55;;;0.28;;
58338;SDS011;68636;52.704;6.536;2024-03-29T04:02:57;3.15;;;0.30;;
58338;SDS011;68636;52.704;6.536;2024-03-29T04:05:23;1.85;;;0.20;;
58338;SDS011;68636;52.704;6.536;2024-03-29T04:07:51;1.77;;;0.25;;
58338;SDS011;68636;52.704;6.536;2024-03-29T04:10:17;2.50;;;0.30;;
58338;SDS011;68636;52.704;6.536;2024-03-29T04:12:43;2.47;;;0.30;;
58338;SDS011;68636;52.704;6.536;2024-03-29T04:15:09;3.40;;;0.28;;
58338;SDS011;68636;52.704;6.536;2024-03-29T04:17:35;4.30;;;0.40;;
58338;SDS011;68636;52.704;6.536;2024-03-29T04:20:02;3.17;;;0.47;;
58338;SDS011;68636;52.704;6.536;2024-03-29T04:22:28;5.55;;;0.40;;
58338;SDS011;68636;52.704;6.536;2024-03-29T04:24:54;1.58;;;0.20;;
58338;SDS011;68636;52.704;6.536;2024-03-29T04:27:20;5.63;;;0.52;;
58338;SDS011;68636;52.704;6.536;2024-03-29T04:29:46;1.83;;;0.17;;
58338;SDS011;68636;52.704;6.536;2024-03-29T04:32:12;5.15;;;0.30;;
58338;SDS011;68636;52.704;6.536;2024-03-29T04:34:39;6.45;;;0.28;;
58338;SDS011;68636;52.704;6.536;2024-03-29T04:37:05;5.78;;;0.40;;
58338;SDS011;68636;52.704;6.536;2024-03-29T04:39:31;4.55;;;0.30;;
58338;SDS011;68636;52.704;6.536;2024-03-29T04:41:57;1.33;;;0.20;;
58338;SDS011;68636;52.704;6.536;2024-03-29T04:44:27;4.05;;;0.30;;
58338;SDS011;68636;52.704;6.536;2024-03-29T04:46:53;2.38;;;0.20;;
58338;SDS011;68636;52.704;6.536;2024-03-29T04:49:21;1.50;;;0.20;;
58338;SDS011;68636;52.704;6.536;2024-03-29T04:51:53;3.95;;;0.30;;
58338;SDS011;68636;52.704;6.536;2024-03-29T04:54:19;2.63;;;0.30;;
58338;SDS011;68636;52.704;6.536;2024-03-29T04:56:45;2.53;;;0.22;;
58338;SDS011;68636;52.704;6.536;2024-03-29T04:59:11;4.10;;;0.35;;
58338;SDS011;68636;52.704;6.536;2024-03-29T05:01:38;2.25;;;0.17;;
58338;SDS011;68636;52.704;6.536;2024-03-29T05:04:05;4.13;;;0.30;;
58338;SDS011;68636;52.704;6.536;2024-03-29T05:06:31;1.67;;;0.30;;
58338;SDS011;68636;52.704;6.536;2024-03-29T05:08:57;0.85;;;0.10;;
58338;SDS011;68636;52.704;6.536;2024-03-29T05:11:23;2.92;;;0.28;;
58338;SDS011;68636;52.704;6.536;2024-03-29T05:13:49;3.20;;;0.38;;
58338;SDS011;68636;52.704;6.536;2024-03-29T05:16:15;2.85;;;0.20;;
58338;SDS011;68636;52.704;6.536;2024-03-29T05:18:41;2.33;;;0.20;;
58338;SDS011;68636;52.704;6.536;2024-03-29T05:21:07;2.10;;;0.20;;
58338;SDS011;68636;52.704;6.536;2024-03-29T05:23:34;1.45;;;0.13;;
58338;SDS011;68636;52.704;6.536;2024-03-29T05:26:00;2.95;;;0.20;;
58338;SDS011;68636;52.704;6.536;2024-03-29T05:28:26;1.95;;;0.20;;
58338;SDS011;68636;52.704;6.536;2024-03-29T05:30:53;2.97;;;0.20;;
58338;SDS011;68636;52.704;6.536;2024-03-29T05:33:19;3.38;;;0.20;;
58338;SDS011;68636;52.704;6.536;2024-03-29T05:35:45;3.20;;;0.20;;
58338;SDS011;68636;52.704;6.536;2024-03-29T05:38:11;2.88;;;0.20;;
58338;SDS011;68636;52.704;6.536;2024-03-29T05:40:37;3.90;;;0.50;;
58338;SDS011;68636;52.704;6.536;2024-03-29T05:43:04;4.05;;;0.30;;
58338;SDS011;68636;52.704;6.536;2024-03-29T05:45:30;3.30;;;0.30;;
58338;SDS011;68636;52.704;6.536;2024-03-29T05:47:57;1.30;;;0.17;;
58338;SDS011;68636;52.704;6.536;2024-03-29T05:50:24;1.77;;;0.30;;
58338;SDS011;68636;52.704;6.536;2024-03-29T05:52:51;0.88;;;0.10;;
58338;SDS011;68636;52.704;6.536;2024-03-29T05:55:17;2.35;;;0.13;;
58338;SDS011;68636;52.704;6.536;2024-03-29T05:57:44;1.07;;;0.20;;
58338;SDS011;68636;52.704;6.536;2024-03-29T06:00:13;2.42;;;0.20;;
58338;SDS011;68636;52.704;6.536;2024-03-29T06:02:39;2.25;;;0.20;;
58338;SDS011;68636;52.704;6.536;2024-03-29T06:05:06;0.77;;;0.20;;
58338;SDS011;68636;52.704;6.536;2024-03-29T06:07:32;1.50;;;0.10;;
58338;SDS011;68636;52.704;6.536;2024-03-29T06:10:01;1.43;;;0.20;;
58338;SDS011;68636;52.704;6.536;2024-03-29T06:12:33;1.17;;;0.10;;
58338;SDS011;68636;52.704;6.536;2024-03-29T06:15:04;1.75;;;0.10;;
58338;SDS011;68636;52.704;6.536;2024-03-29T06:17:48;1.42;;;0.10;;
58338;SDS011;68636;52.704;6.536;2024-03-29T06:20:15;2.92;;;0.20;;
58338;SDS011;68636;52.704;6.536;2024-03-29T06:22:41;1.55;;;0.10;;
58338;SDS011;68636;52.704;6.536;2024-03-29T06:25:07;1.92;;;0.20;;
58338;SDS011;68636;52.704;6.536;2024-03-29T06:27:35;1.95;;;0.10;;
58338;SDS011;68636;52.704;6.536;2024-03-29T06:30:01;1.52;;;0.15;;
58338;SDS011;68636;52.704;6.536;2024-03-29T06:32:28;2.85;;;0.20;;
58338;SDS011;68636;52.704;6.536;2024-03-29T06:34:54;2.75;;;0.20;;
58338;SDS011;68636;52.704;6.536;2024-03-29T06:37:20;2.53;;;0.25;;
58338;SDS011;68636;52.704;6.536;2024-03-29T06:39:47;2.10;;;0.20;;
58338;SDS011;68636;52.704;6.536;2024-03-29T06:42:13;3.45;;;0.20;;
58338;SDS011;68636;52.704;6.536;2024-03-29T06:44:39;3.60;;;0.25;;
58338;SDS011;68636;52.704;6.536;2024-03-29T06:47:06;4.50;;;0.20;;
58338;SDS011;68636;52.704;6.536;2024-03-29T06:49:32;2.78;;;0.20;;
58338;SDS011;68636;52.704;6.536;2024-03-29T06:51:59;1.58;;;0.30;;
58338;SDS011;68636;52.704;6.536;2024-03-29T06:56:55;2.33;;;0.30;;
58338;SDS011;68636;52.704;6.536;2024-03-29T06:59:21;3.88;;;0.30;;
58338;SDS011;68636;52.704;6.536;2024-03-29T07:01:48;3.22;;;0.30;;
58338;SDS011;68636;52.704;6.536;2024-03-29T07:04:18;2.55;;;0.20;;
58338;SDS011;68636;52.704;6.536;2024-03-29T07:06:44;3.08;;;0.30;;
58338;SDS011;68636;52.704;6.536;2024-03-29T07:09:13;1.85;;;0.30;;
58338;SDS011;68636;52.704;6.536;2024-03-29T07:11:40;3.30;;;0.50;;
58338;SDS011;68636;52.704;6.536;2024-03-29T07:14:06;6.20;;;0.63;;
58338;SDS011;68636;52.704;6.536;2024-03-29T07:16:32;3.47;;;0.30;;
58338;SDS011;68636;52.704;6.536;2024-03-29T07:18:58;1.52;;;0.30;;
58338;SDS011;68636;52.704;6.536;2024-03-29T07:21:24;1.60;;;0.25;;
58338;SDS011;68636;52.704;6.536;2024-03-29T07:23:50;2.65;;;0.30;;
58338;SDS011;68636;52.704;6.536;2024-03-29T07:26:16;5.28;;;0.82;;
58338;SDS011;68636;52.704;6.536;2024-03-29T07:28:42;1.85;;;0.32;;
58338;SDS011;68636;52.704;6.536;2024-03-29T07:31:09;3.53;;;0.50;;
58338;SDS011;68636;52.704;6.536;2024-03-29T07:33:35;2.07;;;0.40;;
58338;SDS011;68636;52.704;6.536;2024-03-29T07:36:02;4.03;;;1.17;;
58338;SDS011;68636;52.704;6.536;2024-03-29T07:38:29;3.60;;;0.52;;
58338;SDS011;68636;52.704;6.536;2024-03-29T07:40:55;4.78;;;0.60;;
58338;SDS011;68636;52.704;6.536;2024-03-29T07:43:22;5.95;;;0.50;;
58338;SDS011;68636;52.704;6.536;2024-03-29T07:45:48;3.05;;;0.40;;
58338;SDS011;68636;52.704;6.536;2024-03-29T07:48:15;3.47;;;0.43;;
58338;SDS011;68636;52.704;6.536;2024-03-29T07:50:44;3.10;;;0.50;;
58338;SDS011;68636;52.704;6.536;2024-03-29T07:53:11;2.38;;;0.50;;
58338;SDS011;68636;52.704;6.536;2024-03-29T07:55:37;2.22;;;0.47;;
58338;SDS011;68636;52.704;6.536;2024-03-29T07:58:04;2.30;;;0.30;;
58338;SDS011;68636;52.704;6.536;2024-03-29T08:00:34;2.88;;;0.40;;
58338;SDS011;68636;52.704;6.536;2024-03-29T08:03:01;4.05;;;0.50;;
58338;SDS011;68636;52.704;6.536;2024-03-29T08:05:27;1.33;;;0.40;;
58338;SDS011;68636;52.704;6.536;2024-03-29T08:07:54;4.47;;;0.52;;
58338;SDS011;68636;52.704;6.536;2024-03-29T08:10:20;2.60;;;0.50;;
58338;SDS011;68636;52.704;6.536;2024-03-29T08:12:46;2.55;;;0.50;;
58338;SDS011;68636;52.704;6.536;2024-03-29T08:15:12;3.58;;;0.70;;
58338;SDS011;68636;52.704;6.536;2024-03-29T08:17:38;4.65;;;0.60;;
58338;SDS011;68636;52.704;6.536;2024-03-29T08:20:04;4.05;;;0.57;;
58338;SDS011;68636;52.704;6.536;2024-03-29T08:22:30;4.47;;;0.70;;
58338;SDS011;68636;52.704;6.536;2024-03-29T08:25:00;3.22;;;0.57;;
58338;SDS011;68636;52.704;6.536;2024-03-29T08:27:26;3.30;;;0.70;;
58338;SDS011;68636;52.704;6.536;2024-03-29T08:29:53;4.40;;;0.75;;
58338;SDS011;68636;52.704;6.536;2024-03-29T08:32:19;2.60;;;0.70;;
58338;SDS011;68636;52.704;6.536;2024-03-29T08:34:45;3.95;;;0.68;;
58338;SDS011;68636;52.704;6.536;2024-03-29T08:37:11;3.70;;;0.73;;
58338;SDS011;68636;52.704;6.536;2024-03-29T08:39:37;2.83;;;0.70;;
58338;SDS011;68636;52.704;6.536;2024-03-29T08:42:04;3.10;;;0.60;;
58338;SDS011;68636;52.704;6.536;2024-03-29T08:44:31;3.83;;;0.70;;
58338;SDS011;68636;52.704;6.536;2024-03-29T08:46:58;3.13;;;0.60;;
58338;SDS011;68636;52.704;6.536;2024-03-29T08:49:26;2.90;;;0.63;;
58338;SDS011;68636;52.704;6.536;2024-03-29T08:51:52;2.47;;;0.60;;
58338;SDS011;68636;52.704;6.536;2024-03-29T08:54:18;1.73;;;0.52;;
58338;SDS011;68636;52.704;6.536;2024-03-29T08:56:44;2.97;;;0.70;;
58338;SDS011;68636;52.704;6.536;2024-03-29T08:59:11;2.67;;;0.60;;
58338;SDS011;68636;52.704;6.536;2024-03-29T09:01:43;2.00;;;0.60;;
58338;SDS011;68636;52.704;6.536;2024-03-29T09:04:10;1.80;;;0.63;;
58338;SDS011;68636;52.704;6.536;2024-03-29T09:06:40;2.45;;;0.50;;
58338;SDS011;68636;52.704;6.536;2024-03-29T09:09:08;2.80;;;0.50;;
58338;SDS011;68636;52.704;6.536;2024-03-29T09:11:35;3.65;;;0.73;;
58338;SDS011;68636;52.704;6.536;2024-03-29T09:14:01;1.37;;;0.40;;
58338;SDS011;68636;52.704;6.536;2024-03-29T09:16:28;4.20;;;0.50;;
58338;SDS011;68636;52.704;6.536;2024-03-29T09:18:55;3.60;;;0.60;;
58338;SDS011;68636;52.704;6.536;2024-03-29T09:21:21;4.90;;;0.80;;
58338;SDS011;68636;52.704;6.536;2024-03-29T09:23:47;4.63;;;0.88;;
58338;SDS011;68636;52.704;6.536;2024-03-29T09:26:15;4.45;;;0.60;;
58338;SDS011;68636;52.704;6.536;2024-03-29T09:28:42;5.68;;;0.77;;
58338;SDS011;68636;52.704;6.536;2024-03-29T09:31:08;4.40;;;0.90;;
58338;SDS011;68636;52.704;6.536;2024-03-29T09:33:34;4.05;;;0.55;;
58338;SDS011;68636;52.704;6.536;2024-03-29T09:36:00;3.70;;;0.63;;
58338;SDS011;68636;52.704;6.536;2024-03-29T09:40:58;3.10;;;0.70;;
58338;SDS011;68636;52.704;6.536;2024-03-29T09:43:26;1.70;;;0.40;;
58338;SDS011;68636;52.704;6.536;2024-03-29T09:45:52;3.72;;;0.50;;
58338;SDS011;68636;52.704;6.536;2024-03-29T09:48:19;4.95;;;0.47;;
58338;SDS011;68636;52.704;6.536;2024-03-29T09:50:46;4.50;;;0.57;;
58338;SDS011;68636;52.704;6.536;2024-03-29T09:53:12;1.60;;;0.35;;
58338;SDS011;68636;52.704;6.536;2024-03-29T09:55:38;3.35;;;0.50;;
58338;SDS011;68636;52.704;6.536;2024-03-29T09:58:05;3.28;;;0.52;;
58338;SDS011;68636;52.704;6.536;2024-03-29T10:00:31;5.15;;;0.65;;
58338;SDS011;68636;52.704;6.536;2024-03-29T10:02:57;3.20;;;0.50;;
58338;SDS011;68636;52.704;6.536;2024-03-29T10:05:23;3.95;;;0.50;;
58338;SDS011;68636;52.704;6.536;2024-03-29T10:07:52;3.28;;;0.38;;
58338;SDS011;68636;52.704;6.536;2024-03-29T10:10:18;2.15;;;0.40;;
58338;SDS011;68636;52.704;6.536;2024-03-29T10:12:44;2.55;;;0.43;;
58338;SDS011;68636;52.704;6.536;2024-03-29T10:15:10;1.42;;;0.40;;
58338;SDS011;68636;52.704;6.536;2024-03-29T10:17:44;2.22;;;0.40;;
58338;SDS011;68636;52.704;6.536;2024-03-29T10:20:11;1.67;;;0.40;;
58338;SDS011;68636;52.704;6.536;2024-03-29T10:22:41;3.15;;;0.52;;
58338;SDS011;68636;52.704;6.536;2024-03-29T10:25:09;3.05;;;0.80;;
58338;SDS011;68636;52.704;6.536;2024-03-29T10:27:35;2.35;;;0.60;;
58338;SDS011;68636;52.704;6.536;2024-03-29T10:30:01;6.57;;;0.90;;
58338;SDS011;68636;52.704;6.536;2024-03-29T10:34:54;4.73;;;0.90;;
58338;SDS011;68636;52.704;6.536;2024-03-29T10:37:21;4.82;;;0.82;;
58338;SDS011;68636;52.704;6.536;2024-03-29T10:39:54;4.57;;;1.48;;
58338;SDS011;68636;52.704;6.536;2024-03-29T10:42:22;6.05;;;1.70;;
58338;SDS011;68636;52.704;6.536;2024-03-29T10:44:52;3.88;;;1.40;;
58338;SDS011;68636;52.704;6.536;2024-03-29T10:47:19;7.10;;;2.05;;
58338;SDS011;68636;52.704;6.536;2024-03-29T10:49:51;3.30;;;1.55;;
58338;SDS011;68636;52.704;6.536;2024-03-29T10:52:17;6.20;;;1.70;;
58338;SDS011;68636;52.704;6.536;2024-03-29T10:54:47;5.07;;;1.45;;
58338;SDS011;68636;52.704;6.536;2024-03-29T10:57:19;4.53;;;1.58;;
58338;SDS011;68636;52.704;6.536;2024-03-29T11:03:02;6.90;;;2.17;;
58338;SDS011;68636;52.704;6.536;2024-03-29T11:05:09;5.50;;;3.10;;
58338;SDS011;68636;52.704;6.536;2024-03-29T11:07:37;5.63;;;3.20;;
58338;SDS011;68636;52.704;6.536;2024-03-29T11:10:05;6.63;;;2.67;;
58338;SDS011;68636;52.704;6.536;2024-03-29T11:12:39;5.82;;;2.72;;
58338;SDS011;68636;52.704;6.536;2024-03-29T11:15:08;7.28;;;3.45;;
58338;SDS011;68636;52.704;6.536;2024-03-29T11:17:38;7.07;;;3.30;;
58338;SDS011;68636;52.704;6.536;2024-03-29T11:20:04;5.63;;;3.17;;
58338;SDS011;68636;52.704;6.536;2024-03-29T11:22:30;7.37;;;3.10;;
58338;SDS011;68636;52.704;6.536;2024-03-29T11:24:57;5.05;;;3.15;;
58338;SDS011;68636;52.704;6.536;2024-03-29T11:27:25;7.47;;;2.78;;
58338;SDS011;68636;52.704;6.536;2024-03-29T11:29:51;5.93;;;3.42;;
58338;SDS011;68636;52.704;6.536;2024-03-29T11:32:33;5.63;;;2.80;;
58338;SDS011;68636;52.704;6.536;2024-03-29T11:34:59;6.35;;;2.70;;
58338;SDS011;68636;52.704;6.536;2024-03-29T11:37:31;5.73;;;2.77;;
58338;SDS011;68636;52.704;6.536;2024-03-29T11:40:01;6.32;;;3.17;;
58338;SDS011;68636;52.704;6.536;2024-03-29T11:42:37;6.30;;;2.78;;
58338;SDS011;68636;52.704;6.536;2024-03-29T11:45:03;4.63;;;2.88;;
58338;SDS011;68636;52.704;6.536;2024-03-29T11:47:29;7.28;;;2.80;;
58338;SDS011;68636;52.704;6.536;2024-03-29T11:49:56;6.38;;;3.25;;
58338;SDS011;68636;52.704;6.536;2024-03-29T11:52:25;4.65;;;2.60;;
58338;SDS011;68636;52.704;6.536;2024-03-29T11:54:53;4.70;;;2.72;;
58338;SDS011;68636;52.704;6.536;2024-03-29T11:57:19;4.60;;;2.30;;
58338;SDS011;68636;52.704;6.536;2024-03-29T11:59:45;4.65;;;2.28;;
58338;SDS011;68636;52.704;6.536;2024-03-29T12:02:12;5.33;;;1.87;;
58338;SDS011;68636;52.704;6.536;2024-03-29T12:04:43;2.72;;;1.50;;
58338;SDS011;68636;52.704;6.536;2024-03-29T12:07:09;4.97;;;1.67;;
58338;SDS011;68636;52.704;6.536;2024-03-29T12:09:35;4.60;;;1.73;;
58338;SDS011;68636;52.704;6.536;2024-03-29T12:12:05;4.00;;;1.80;;
58338;SDS011;68636;52.704;6.536;2024-03-29T12:14:34;4.30;;;1.67;;
58338;SDS011;68636;52.704;6.536;2024-03-29T12:17:08;3.03;;;1.30;;
58338;SDS011;68636;52.704;6.536;2024-03-29T12:19:35;3.40;;;1.10;;
58338;SDS011;68636;52.704;6.536;2024-03-29T12:22:03;3.00;;;0.70;;
58338;SDS011;68636;52.704;6.536;2024-03-29T12:24:30;2.63;;;0.90;;
58338;SDS011;68636;52.704;6.536;2024-03-29T12:26:57;2.65;;;0.70;;
58338;SDS011;68636;52.704;6.536;2024-03-29T12:29:23;1.90;;;0.70;;
58338;SDS011;68636;52.704;6.536;2024-03-29T12:31:58;2.57;;;0.50;;
58338;SDS011;68636;52.704;6.536;2024-03-29T12:34:25;2.37;;;0.50;;
58338;SDS011;68636;52.704;6.536;2024-03-29T12:36:51;3.10;;;0.80;;
58338;SDS011;68636;52.704;6.536;2024-03-29T12:39:17;1.30;;;0.60;;
58338;SDS011;68636;52.704;6.536;2024-03-29T12:41:46;2.33;;;0.50;;
58338;SDS011;68636;52.704;6.536;2024-03-29T12:44:12;1.48;;;0.60;;
58338;SDS011;68636;52.704;6.536;2024-03-29T12:46:38;1.85;;;0.60;;
58338;SDS011;68636;52.704;6.536;2024-03-29T12:49:04;1.20;;;0.57;;
58338;SDS011;68636;52.704;6.536;2024-03-29T12:51:31;1.30;;;0.50;;
58338;SDS011;68636;52.704;6.536;2024-03-29T12:54:03;4.45;;;0.63;;
58338;SDS011;68636;52.704;6.536;2024-03-29T12:56:31;4.35;;;0.80;;
58338;SDS011;68636;52.704;6.536;2024-03-29T12:58:59;2.70;;;0.80;;
58338;SDS011;68636;52.704;6.536;2024-03-29T13:01:25;3.25;;;0.63;;
58338;SDS011;68636;52.704;6.536;2024-03-29T13:03:51;3.00;;;0.80;;
58338;SDS011;68636;52.704;6.536;2024-03-29T13:06:17;2.45;;;0.60;;
58338;SDS011;68636;52.704;6.536;2024-03-29T13:08:44;2.95;;;0.80;;
58338;SDS011;68636;52.704;6.536;2024-03-29T13:11:10;2.20;;;0.50;;
58338;SDS011;68636;52.704;6.536;2024-03-29T13:13:36;2.67;;;0.60;;
58338;SDS011;68636;52.704;6.536;2024-03-29T13:16:02;3.03;;;0.70;;
58338;SDS011;68636;52.704;6.536;2024-03-29T13:18:28;4.30;;;0.60;;
58338;SDS011;68636;52.704;6.536;2024-03-29T13:20:54;2.10;;;0.52;;
58338;SDS011;68636;52.704;6.536;2024-03-29T13:25:47;3.55;;;0.60;;
58338;SDS011;68636;52.704;6.536;2024-03-29T13:28:13;1.95;;;0.50;;
58338;SDS011;68636;52.704;6.536;2024-03-29T13:30:40;1.60;;;0.80;;
58338;SDS011;68636;52.704;6.536;2024-03-29T13:33:10;2.33;;;0.52;;
58338;SDS011;68636;52.704;6.536;2024-03-29T13:35:37;2.72;;;0.50;;
58338;SDS011;68636;52.704;6.536;2024-03-29T13:38:04;2.38;;;0.63;;
58338;SDS011;68636;52.704;6.536;2024-03-29T13:40:30;2.17;;;0.70;;
58338;SDS011;68636;52.704;6.536;2024-03-29T13:45:23;1.25;;;0.52;;
58338;SDS011;68636;52.704;6.536;2024-03-29T13:47:52;1.75;;;0.50;;
58338;SDS011;68636;52.704;6.536;2024-03-29T13:50:18;2.28;;;0.60;;
58338;SDS011;68636;52.704;6.536;2024-03-29T13:52:44;1.48;;;0.40;;
58338;SDS011;68636;52.704;6.536;2024-03-29T13:55:10;1.42;;;0.50;;
58338;SDS011;68636;52.704;6.536;2024-03-29T13:57:36;2.00;;;0.50;;
58338;SDS011;68636;52.704;6.536;2024-03-29T14:00:03;2.10;;;0.50;;
58338;SDS011;68636;52.704;6.536;2024-03-29T14:02:31;1.75;;;0.50;;
58338;SDS011;68636;52.704;6.536;2024-03-29T14:04:58;1.57;;;0.50;;
58338;SDS011;68636;52.704;6.536;2024-03-29T14:07:24;1.15;;;0.40;;
58338;SDS011;68636;52.704;6.536;2024-03-29T14:09:50;2.13;;;0.47;;
58338;SDS011;68636;52.704;6.536;2024-03-29T14:12:17;2.03;;;0.40;;
58338;SDS011;68636;52.704;6.536;2024-03-29T14:14:46;1.20;;;0.40;;
58338;SDS011;68636;52.704;6.536;2024-03-29T14:17:13;1.83;;;0.60;;
58338;SDS011;68636;52.704;6.536;2024-03-29T14:19:40;1.93;;;0.40;;
58338;SDS011;68636;52.704;6.536;2024-03-29T14:22:06;1.02;;;0.40;;
58338;SDS011;68636;52.704;6.536;2024-03-29T14:24:33;3.25;;;0.60;;
58338;SDS011;68636;52.704;6.536;2024-03-29T14:27:02;1.55;;;0.47;;
58338;SDS011;68636;52.704;6.536;2024-03-29T14:29:32;2.15;;;0.50;;
58338;SDS011;68636;52.704;6.536;2024-03-29T14:31:58;1.60;;;0.40;;
58338;SDS011;68636;52.704;6.536;2024-03-29T14:34:25;1.52;;;0.40;;
58338;SDS011;68636;52.704;6.536;2024-03-29T14:36:51;1.58;;;0.50;;
58338;SDS011;68636;52.704;6.536;2024-03-29T14:39:17;1.95;;;0.60;;
58338;SDS011;68636;52.704;6.536;2024-03-29T14:41:48;2.13;;;0.55;;
58338;SDS011;68636;52.704;6.536;2024-03-29T14:44:16;1.30;;;0.45;;
58338;SDS011;68636;52.704;6.536;2024-03-29T14:46:43;1.55;;;0.52;;
58338;SDS011;68636;52.704;6.536;2024-03-29T14:49:09;2.58;;;0.60;;
58338;SDS011;68636;52.704;6.536;2024-03-29T14:51:37;1.63;;;0.50;;
58338;SDS011;68636;52.704;6.536;2024-03-29T14:54:03;1.80;;;0.43;;
58338;SDS011;68636;52.704;6.536;2024-03-29T14:56:29;1.98;;;0.50;;
58338;SDS011;68636;52.704;6.536;2024-03-29T14:58:56;1.10;;;0.45;;
58338;SDS011;68636;52.704;6.536;2024-03-29T15:01:23;2.10;;;0.57;;
58338;SDS011;68636;52.704;6.536;2024-03-29T15:03:50;1.25;;;0.40;;
58338;SDS011;68636;52.704;6.536;2024-03-29T15:06:17;1.63;;;0.60;;